Terminal Aerodrome Forecast
Issued by NWS

Home | Current Version | Previous Version | Text Only | Print | Product List | Glossary On
Versions: 1 2 3 4 5 6 7 8 9 10 11 12 13 14 15 16 17 18 19 20 21 22 23 24 25
000
FTAK31 PAJN 222000 AAA
TAFAJN
TAF AMD
PAJN 222057Z 2221/2318 12015KT P6SM -SHRA BKN040 OVC060
      WS020/12030KT
     FM222300 14013KT P6SM VCSH BKN035 OVC050
     FM230200 08004KT P6SM SCT035 OVC060
     FM230700 07005KT P6SM BCFG SCT004 SCT040 BKN070=

USA.gov is the U.S. government's official web portal to all federal, state and local government web resources and services.